Centerview, MO (64019)

12:13 PM CST on February 08, 2016 (GMT -0600)
North Centerview | | Change Station
CLOSE
Current Station
Personal Weather Station
Location: Centerview, MO
Elevation: 886 ft
Nearby Weather Stations
Active Advisory: Wind Advisory

Elev 886 ft 38.78 °N, 93.86 °W | Updated 12 seconds ago

Snow
Snow
30.4 °F
Feels Like 20 °F
N
13.6
Wind Variable Wind from NNW
Gusts 17.4 mph

Today
High -- | Low -- °F
--% Chance of Precip.
Yesterday
High -- | Low -- °F
Precip. -- in
Pressure 30.05 in
Visibility 7.0 miles
Clouds Scattered Clouds 1100 ft
Mostly Cloudy 3000 ft
Overcast 3700 ft
Windchill 20 °F
Dew Point 18 °F
Humidity 61%
Rainfall 0.00 in
Snow Depth Not available.
7:15 AM 5:44 PM
New Moon, 0% visible
METAR KRCM 081755Z AUTO 32018G26KT 7SM -SN SCT011 BKN030 OVC037 M01/M05 A3005 RMK AO2
Pressure 30.05 in
Visibility 7.0 miles
Clouds Scattered Clouds 1100 ft
Mostly Cloudy 3000 ft
Overcast 3700 ft
Windchill 20 °F
Dew Point 18 °F
Humidity 61%
Rainfall 0.00 in
Snow Depth Not available.
7:15 AM 5:44 PM
New Moon, 0% visible
METAR KRCM 081755Z AUTO 32018G26KT 7SM -SN SCT011 BKN030 OVC037 M01/M05 A3005 RMK AO2

10-Day Weather Forecast

Almanac

Astronomy

Feb. 08, 2016 Rise Set
Actual Time
Civil Twilight
Nautical Twilight
Astronomical Twilight
Moon
Length of Visible Light
Length of Day
Tomorrow will be .
, % of the Moon is Illuminated

Today's Extremes

State Highs State Lows

Community

WunderPhotos

Upload Photos

1,891,475 photos uploaded!

WunderBlog® & News

Nearby

Air Quality

  Air Quality AQ Index Pollutant
Not available.

Snow Depth

Station Depth Elevation

Earthquake Activity

City Distance Mag. Time & Date
Minimum magnitude displayed is 2.5.

Coastal Water Temperatures

Place Temperature

Stations

Nearby Weather Stations

Station Location Temp. Windchill Dew Point Humidity Wind Precip. Elev Updated Type
                   

Watches & Warnings

Wind Advisory
Issued: 11:48 AM CST Feb. 8, 2016 – National Weather Service

... Wind Advisory remains in effect until 6 PM CST this evening...

* timing... through early this evening.

* Winds... sustained from 25 to 35 mph with gusts in excess of 45 mph.

* Impacts... strong Crosswinds on highways will likely make travel
difficult... particularly for high profile vehicles. In
addition... patchy areas of snow showers combined with these strong
winds will occasionally reduce visibilities.

Precautionary/preparedness actions...

A Wind Advisory means that winds of 35 mph are expected. Winds
this strong can make driving difficult... especially for high
profile vehicles. Use extra caution.